createdAt,value
2023-05-10T00:01:35.457Z,14.60
2023-05-10T00:04:04.708Z,14.60
2023-05-10T00:06:33.624Z,14.60
2023-05-10T00:09:04.512Z,14.60
2023-05-10T00:11:33.015Z,14.60
2023-05-10T00:14:01.502Z,14.60
2023-05-10T00:16:30.453Z,14.50
2023-05-10T00:19:01.193Z,14.60
2023-05-10T00:21:30.166Z,14.60
2023-05-10T00:23:58.625Z,14.60
2023-05-10T00:26:27.956Z,14.50
2023-05-10T00:29:00.792Z,14.50
2023-05-10T00:31:29.933Z,14.50
2023-05-10T00:34:01.328Z,14.40
2023-05-10T00:36:30.176Z,14.40
2023-05-10T00:38:59.009Z,14.40
2023-05-10T00:41:27.822Z,14.40
2023-05-10T00:43:58.414Z,14.40
2023-05-10T00:46:29.694Z,14.40
2023-05-10T00:49:00.338Z,14.30
2023-05-10T00:51:29.196Z,14.30
2023-05-10T00:53:58.673Z,14.20
2023-05-10T00:56:31.004Z,14.20
2023-05-10T00:58:59.682Z,14.20
2023-05-10T01:01:29.133Z,14.10
2023-05-10T01:03:58.810Z,14.10
2023-05-10T01:06:29.045Z,14.10
2023-05-10T01:08:58.762Z,14.10
2023-05-10T01:11:27.686Z,14.00
2023-05-10T01:14:01.762Z,13.90
2023-05-10T01:16:34.114Z,13.90
2023-05-10T01:19:03.258Z,13.90
2023-05-10T01:21:41.257Z,13.90
2023-05-10T01:24:43.614Z,13.80
2023-05-10T01:28:04.840Z,13.80
2023-05-10T01:31:15.132Z,13.70
2023-05-10T01:33:52.728Z,13.70
2023-05-10T01:36:29.793Z,13.60
2023-05-10T01:39:04.685Z,13.50
2023-05-10T01:41:54.265Z,13.50
2023-05-10T01:44:33.877Z,13.50
2023-05-10T01:47:09.741Z,13.50
2023-05-10T01:49:45.956Z,13.50
2023-05-10T01:52:18.587Z,13.50
2023-05-10T01:54:58.200Z,13.50
2023-05-10T01:57:33.810Z,13.50
2023-05-10T02:00:05.736Z,13.50
2023-05-10T02:02:47.538Z,13.40
2023-05-10T02:05:19.955Z,13.50
2023-05-10T02:07:50.259Z,13.50
2023-05-10T02:10:20.337Z,13.50
2023-05-10T02:12:51.103Z,13.40
2023-05-10T02:15:23.904Z,13.40
2023-05-10T02:17:53.169Z,13.40
2023-05-10T02:20:26.457Z,13.40
2023-05-10T02:22:59.090Z,13.40
2023-05-10T02:25:31.586Z,13.40
2023-05-10T02:28:05.264Z,13.40
2023-05-10T02:30:36.320Z,13.40
2023-05-10T02:33:07.267Z,13.40
2023-05-10T02:35:41.864Z,13.30
2023-05-10T02:38:14.376Z,13.40
2023-05-10T02:40:45.785Z,13.30
2023-05-10T02:43:17.700Z,13.30
2023-05-10T02:45:49.815Z,13.30
2023-05-10T02:48:19.413Z,13.30
2023-05-10T02:50:55.627Z,13.30
2023-05-10T02:53:37.237Z,13.30
2023-05-10T02:56:15.761Z,13.30
2023-05-10T02:58:44.883Z,13.30
2023-05-10T03:01:14.008Z,13.30
2023-05-10T03:03:45.159Z,13.30
2023-05-10T03:06:15.670Z,13.30
2023-05-10T03:08:45.001Z,13.30
2023-05-10T03:11:33.380Z,13.30
2023-05-10T03:14:22.060Z,13.30
2023-05-10T03:16:59.625Z,13.40
2023-05-10T03:19:36.043Z,13.40
2023-05-10T03:22:11.609Z,13.40
2023-05-10T03:24:44.100Z,13.30
2023-05-10T03:27:14.018Z,13.40
2023-05-10T03:29:45.246Z,13.40
2023-05-10T03:32:15.570Z,13.40
2023-05-10T03:34:46.338Z,13.40
2023-05-10T03:37:17.539Z,13.40
2023-05-10T03:39:46.324Z,13.40
2023-05-10T03:42:15.231Z,13.40
2023-05-10T03:44:43.857Z,13.40
2023-05-10T03:47:12.896Z,13.40
2023-05-10T03:49:43.237Z,13.40
2023-05-10T03:52:14.164Z,13.40
2023-05-10T03:54:44.628Z,13.40
2023-05-10T03:57:13.451Z,13.40
2023-05-10T03:59:42.707Z,13.50
2023-05-10T04:02:13.390Z,13.40
2023-05-10T04:04:42.309Z,13.50
2023-05-10T04:07:12.957Z,13.50
2023-05-10T04:09:45.504Z,13.50
2023-05-10T04:12:14.302Z,13.50
2023-05-10T04:14:43.149Z,13.50
2023-05-10T04:17:12.912Z,13.50
2023-05-10T04:19:41.508Z,13.40
2023-05-10T04:22:10.283Z,13.40
2023-05-10T04:24:39.096Z,13.40
2023-05-10T04:27:09.420Z,13.50
2023-05-10T04:29:38.200Z,13.50
2023-05-10T04:32:07.578Z,13.50
2023-05-10T04:34:36.821Z,13.50
2023-05-10T04:37:05.683Z,13.50
2023-05-10T04:39:36.645Z,13.60
2023-05-10T04:42:09.159Z,13.60
2023-05-10T04:44:38.408Z,13.60
2023-05-10T04:47:07.273Z,13.60
2023-05-10T04:49:36.012Z,13.60
2023-05-10T04:52:04.622Z,13.60
2023-05-10T04:54:34.053Z,13.60
2023-05-10T04:57:02.826Z,13.60
2023-05-10T04:59:32.516Z,13.70
2023-05-10T05:02:01.146Z,13.70
2023-05-10T05:04:30.310Z,13.70
2023-05-10T05:07:00.329Z,13.70
2023-05-10T05:09:30.533Z,13.70
2023-05-10T05:11:59.108Z,13.70
2023-05-10T05:14:28.772Z,13.70
2023-05-10T05:16:59.250Z,13.70
2023-05-10T05:19:28.735Z,13.70
2023-05-10T05:21:57.276Z,13.80
2023-05-10T05:24:27.321Z,13.90
2023-05-10T05:26:56.230Z,13.90
2023-05-10T05:29:25.901Z,14.00
2023-05-10T05:31:55.498Z,14.10
2023-05-10T05:34:26.158Z,14.10
2023-05-10T05:36:55.160Z,14.20
2023-05-10T05:39:25.043Z,14.20
2023-05-10T05:41:53.756Z,14.30
2023-05-10T05:44:23.794Z,14.30
2023-05-10T05:46:52.209Z,14.40
2023-05-10T05:49:21.188Z,14.40
2023-05-10T05:51:53.950Z,14.40
2023-05-10T05:54:22.938Z,14.40
2023-05-10T05:56:51.890Z,14.50
2023-05-10T05:59:20.712Z,14.60
2023-05-10T06:01:49.621Z,14.60
2023-05-10T06:04:19.633Z,14.70
2023-05-10T06:06:48.611Z,14.70
2023-05-10T06:09:18.637Z,14.80
2023-05-10T06:11:47.931Z,14.80
2023-05-10T06:14:17.390Z,14.90
2023-05-10T06:16:47.430Z,14.90
2023-05-10T06:19:16.623Z,15.00
2023-05-10T06:21:45.549Z,15.00
2023-05-10T06:24:15.601Z,15.00
2023-05-10T06:26:46.031Z,14.90
2023-05-10T06:29:16.515Z,14.90
2023-05-10T06:31:45.999Z,15.00
2023-05-10T06:34:14.936Z,15.00
2023-05-10T06:36:43.718Z,15.00
2023-05-10T06:39:13.045Z,15.00
2023-05-10T06:41:42.077Z,15.00
2023-05-10T06:44:12.745Z,15.10
2023-05-10T06:46:41.170Z,15.10
2023-05-10T06:49:10.505Z,15.10
2023-05-10T06:51:39.363Z,15.10
2023-05-10T06:54:08.111Z,15.10
2023-05-10T06:56:36.775Z,15.10
2023-05-10T06:59:05.785Z,15.10
2023-05-10T07:01:36.157Z,15.10
2023-05-10T07:04:05.363Z,15.20
2023-05-10T07:06:34.868Z,15.10
2023-05-10T07:09:03.999Z,15.10
2023-05-10T07:11:32.664Z,15.20
2023-05-10T07:14:01.569Z,15.30
2023-05-10T07:16:30.348Z,15.40
2023-05-10T07:19:00.781Z,15.50
2023-05-10T07:21:30.027Z,15.50
2023-05-10T07:23:59.118Z,15.60
2023-05-10T07:26:27.843Z,15.70
2023-05-10T07:28:58.577Z,15.80
2023-05-10T07:31:27.531Z,15.90
2023-05-10T07:33:57.218Z,16.00
2023-05-10T07:36:27.298Z,16.00
2023-05-10T07:38:56.330Z,16.00
2023-05-10T07:41:25.548Z,16.10
2023-05-10T07:43:54.406Z,16.10
2023-05-10T07:46:23.472Z,16.20
2023-05-10T07:48:52.334Z,16.20
2023-05-10T07:51:20.739Z,16.20
2023-05-10T07:53:52.685Z,16.20
2023-05-10T07:56:28.215Z,16.20
2023-05-10T07:58:58.528Z,16.10
2023-05-10T08:01:28.652Z,16.10
2023-05-10T08:03:57.428Z,16.00
2023-05-10T08:06:27.800Z,16.00
2023-05-10T08:08:58.563Z,15.90
2023-05-10T08:11:28.781Z,16.00
2023-05-10T08:13:57.478Z,15.90
2023-05-10T08:16:26.146Z,16.00
2023-05-10T08:18:56.613Z,15.90
2023-05-10T08:21:28.098Z,15.90
2023-05-10T08:23:59.104Z,15.90
2023-05-10T08:26:28.181Z,15.80
2023-05-10T08:28:57.693Z,15.80
2023-05-10T08:31:27.485Z,15.80
2023-05-10T08:33:56.315Z,15.70
2023-05-10T08:36:25.457Z,15.70
2023-05-10T08:38:54.894Z,15.60
2023-05-10T08:41:26.970Z,15.70
2023-05-10T08:43:56.878Z,15.70
2023-05-10T08:46:25.774Z,15.80
2023-05-10T08:48:57.226Z,15.90
2023-05-10T08:51:27.780Z,16.10
2023-05-10T08:53:57.503Z,16.30
2023-05-10T08:56:27.996Z,16.50
2023-05-10T08:58:57.229Z,16.80
2023-05-10T09:01:26.922Z,16.80
2023-05-10T09:03:56.150Z,17.00
2023-05-10T09:06:25.071Z,17.10
2023-05-10T09:08:54.525Z,17.20
2023-05-10T09:11:24.517Z,17.30
2023-05-10T09:13:55.733Z,17.40
2023-05-10T09:16:25.216Z,17.60
2023-05-10T09:18:53.977Z,17.80
2023-05-10T09:21:24.146Z,18.00
2023-05-10T09:23:55.512Z,18.10
2023-05-10T09:26:27.426Z,18.20
2023-05-10T09:29:00.367Z,18.30
2023-05-10T09:31:48.344Z,18.40
2023-05-10T09:34:22.327Z,18.50
2023-05-10T09:36:58.986Z,18.60
2023-05-10T09:39:34.335Z,18.60
2023-05-10T09:42:06.111Z,18.60
2023-05-10T09:44:36.871Z,18.60
2023-05-10T09:47:06.494Z,18.60
2023-05-10T09:49:38.210Z,18.50
2023-05-10T09:52:09.024Z,18.50
2023-05-10T09:54:38.229Z,18.20
2023-05-10T09:57:07.270Z,17.90
2023-05-10T09:59:37.717Z,17.70
2023-05-10T10:02:06.662Z,17.60
2023-05-10T10:04:41.926Z,17.60
2023-05-10T10:07:11.348Z,17.70
2023-05-10T10:09:40.188Z,17.90
2023-05-10T10:12:09.713Z,18.00
2023-05-10T10:14:40.043Z,18.30
2023-05-10T10:17:11.129Z,18.50
2023-05-10T10:19:39.851Z,18.80
2023-05-10T10:22:08.743Z,19.10
2023-05-10T10:24:37.684Z,19.30
2023-05-10T10:27:19.021Z,19.60
2023-05-10T10:30:03.056Z,19.80
2023-05-10T10:32:44.863Z,20.10
2023-05-10T10:35:14.308Z,20.50
2023-05-10T10:37:48.554Z,20.90
2023-05-10T10:40:34.995Z,21.50
2023-05-10T10:43:27.239Z,21.70
2023-05-10T10:46:24.145Z,21.70
2023-05-10T10:49:11.055Z,21.40
2023-05-10T10:51:41.970Z,21.00
2023-05-10T10:54:14.364Z,20.60
2023-05-10T10:56:47.546Z,20.30
2023-05-10T10:59:30.567Z,20.00
2023-05-10T11:02:02.217Z,19.80
2023-05-10T11:04:30.751Z,19.60
2023-05-10T11:07:21.988Z,19.40
2023-05-10T11:09:50.919Z,19.20
2023-05-10T11:12:19.926Z,19.00
2023-05-10T11:14:56.594Z,19.00
2023-05-10T11:17:28.117Z,18.90
2023-05-10T11:20:11.160Z,18.80
2023-05-10T11:22:54.627Z,18.90
2023-05-10T11:25:29.378Z,18.90
2023-05-10T11:27:58.439Z,18.80
2023-05-10T11:30:27.809Z,18.70
2023-05-10T11:32:58.364Z,18.60
2023-05-10T11:35:30.034Z,18.40
2023-05-10T11:38:00.692Z,18.10
2023-05-10T11:40:30.744Z,17.70
2023-05-10T11:42:59.756Z,17.60
2023-05-10T11:45:30.594Z,17.60
2023-05-10T11:48:01.909Z,17.80
2023-05-10T11:50:31.867Z,18.00
2023-05-10T11:53:02.407Z,18.20
2023-05-10T11:55:32.477Z,18.50
2023-05-10T11:58:04.777Z,18.60
2023-05-10T12:00:34.131Z,19.00
2023-05-10T12:03:06.003Z,19.20
2023-05-10T12:05:35.892Z,19.50
2023-05-10T12:08:15.777Z,19.60
2023-05-10T12:10:46.008Z,19.70
2023-05-10T12:13:16.414Z,19.90
2023-05-10T12:15:45.755Z,19.90
2023-05-10T12:18:17.172Z,19.90
2023-05-10T12:20:47.576Z,19.90
2023-05-10T12:23:16.581Z,19.90
2023-05-10T12:25:46.568Z,19.80
2023-05-10T12:28:16.601Z,19.70
2023-05-10T12:30:45.044Z,19.70
2023-05-10T12:33:19.751Z,19.60
2023-05-10T12:35:50.382Z,19.60
2023-05-10T12:38:36.209Z,19.60
2023-05-10T12:41:06.800Z,19.70
2023-05-10T12:43:36.460Z,19.60
2023-05-10T12:46:09.953Z,19.60
2023-05-10T12:48:41.871Z,19.60
2023-05-10T12:51:12.885Z,19.50
2023-05-10T12:53:45.667Z,19.40
2023-05-10T12:56:16.157Z,19.30
2023-05-10T12:58:49.325Z,19.30
2023-05-10T13:01:18.763Z,19.20
2023-05-10T13:03:49.187Z,19.00
2023-05-10T13:06:18.332Z,19.10
2023-05-10T13:08:46.959Z,19.00
2023-05-10T13:11:18.054Z,18.90
2023-05-10T13:13:47.337Z,18.80
2023-05-10T13:16:16.162Z,18.70
2023-05-10T13:18:45.561Z,18.50
2023-05-10T13:21:15.748Z,18.50
2023-05-10T13:23:45.573Z,18.30
2023-05-10T13:26:14.696Z,18.20
2023-05-10T13:28:45.018Z,18.10
2023-05-10T13:31:14.553Z,18.10
2023-05-10T13:33:43.546Z,18.10
2023-05-10T13:36:12.503Z,18.20
2023-05-10T13:38:42.435Z,18.30
2023-05-10T13:41:11.376Z,18.30
2023-05-10T13:43:40.269Z,18.40
2023-05-10T13:46:08.896Z,18.50
2023-05-10T13:48:39.555Z,18.60
2023-05-10T13:51:09.210Z,18.60
2023-05-10T13:53:39.165Z,18.60
2023-05-10T13:56:09.792Z,18.60
2023-05-10T13:58:38.756Z,18.60
2023-05-10T14:01:07.690Z,18.50
2023-05-10T14:03:36.218Z,18.50
2023-05-10T14:06:05.029Z,18.40
2023-05-10T14:08:33.520Z,18.40
2023-05-10T14:11:02.760Z,18.30
2023-05-10T14:13:34.488Z,18.20
2023-05-10T14:16:03.384Z,18.20
2023-05-10T14:18:32.788Z,18.20
2023-05-10T14:21:01.636Z,18.20
2023-05-10T14:23:30.743Z,18.10
2023-05-10T14:26:00.979Z,18.10
2023-05-10T14:28:30.331Z,18.10
2023-05-10T14:31:02.363Z,18.10
2023-05-10T14:33:31.052Z,18.20
2023-05-10T14:36:01.316Z,18.20
2023-05-10T14:38:30.477Z,18.20
2023-05-10T14:40:59.630Z,18.20
2023-05-10T14:43:29.379Z,18.20
2023-05-10T14:45:58.263Z,18.20
2023-05-10T14:48:28.632Z,18.20
2023-05-10T14:50:57.323Z,18.10
2023-05-10T14:53:27.280Z,18.10
2023-05-10T14:55:56.123Z,18.10
2023-05-10T14:58:25.083Z,18.00
2023-05-10T15:00:54.362Z,18.00
2023-05-10T15:03:23.717Z,18.00
2023-05-10T15:05:54.481Z,18.00
2023-05-10T15:08:23.198Z,18.00
2023-05-10T15:10:52.004Z,18.00
2023-05-10T15:13:20.754Z,18.10
2023-05-10T15:15:50.212Z,18.10
2023-05-10T15:18:19.173Z,18.10
2023-05-10T15:20:47.887Z,18.20
2023-05-10T15:23:18.303Z,18.20
2023-05-10T15:25:47.244Z,18.20
2023-05-10T15:28:15.905Z,18.20
2023-05-10T15:30:45.709Z,18.20
2023-05-10T15:33:16.525Z,18.10
2023-05-10T15:35:46.408Z,18.20
2023-05-10T15:38:14.958Z,18.20
2023-05-10T15:40:45.110Z,18.10
2023-05-10T15:43:14.038Z,18.10
2023-05-10T15:45:42.788Z,18.10
2023-05-10T15:48:11.741Z,18.20
2023-05-10T15:50:41.188Z,18.20
2023-05-10T15:53:10.154Z,18.20
2023-05-10T15:55:38.962Z,18.10
2023-05-10T15:58:09.176Z,18.10
2023-05-10T16:00:40.256Z,18.10
2023-05-10T16:03:09.336Z,18.00
2023-05-10T16:05:38.033Z,17.90
2023-05-10T16:08:07.420Z,17.90
2023-05-10T16:10:36.143Z,17.90
2023-05-10T16:13:04.864Z,17.90
2023-05-10T16:15:35.659Z,17.80
2023-05-10T16:18:05.562Z,17.80
2023-05-10T16:20:35.679Z,17.70
2023-05-10T16:23:07.750Z,17.60
2023-05-10T16:25:37.552Z,17.60
2023-05-10T16:28:06.830Z,17.60
2023-05-10T16:30:37.039Z,17.50
2023-05-10T16:33:06.596Z,17.50
2023-05-10T16:35:35.448Z,17.40
2023-05-10T16:38:04.380Z,17.40
2023-05-10T16:40:34.069Z,17.30
2023-05-10T16:43:03.353Z,17.40
2023-05-10T16:45:33.950Z,17.30
2023-05-10T16:48:05.920Z,17.30
2023-05-10T16:50:34.488Z,17.30
2023-05-10T16:53:04.632Z,17.30
2023-05-10T16:55:34.126Z,17.20
2023-05-10T16:58:03.162Z,17.20
2023-05-10T17:00:31.730Z,17.20
2023-05-10T17:03:00.688Z,17.20
2023-05-10T17:05:32.495Z,17.10
2023-05-10T17:08:00.968Z,17.10
2023-05-10T17:10:29.759Z,17.10
2023-05-10T17:12:59.273Z,17.00
2023-05-10T17:15:29.780Z,17.10
2023-05-10T17:18:01.127Z,17.00
2023-05-10T17:20:33.141Z,17.00
2023-05-10T17:23:03.244Z,17.00
2023-05-10T17:25:32.381Z,17.00
2023-05-10T17:28:01.003Z,17.00
2023-05-10T17:30:33.617Z,16.90
2023-05-10T17:33:03.748Z,16.80
2023-05-10T17:35:34.575Z,16.80
2023-05-10T17:38:04.589Z,16.70
2023-05-10T17:40:34.711Z,16.70
2023-05-10T17:43:03.447Z,16.60
2023-05-10T17:45:32.072Z,16.60
2023-05-10T17:48:01.426Z,16.50
2023-05-10T17:50:30.054Z,16.50
2023-05-10T17:52:59.950Z,16.40
2023-05-10T17:55:31.125Z,16.40
2023-05-10T17:58:01.046Z,16.30
2023-05-10T18:00:29.754Z,16.30
2023-05-10T18:02:58.463Z,16.20
2023-05-10T18:05:27.510Z,16.20
2023-05-10T18:07:56.488Z,16.10
2023-05-10T18:10:28.400Z,16.20
2023-05-10T18:12:58.745Z,16.10
2023-05-10T18:15:29.322Z,16.10
2023-05-10T18:17:58.264Z,16.00
2023-05-10T18:20:27.146Z,16.00
2023-05-10T18:22:56.958Z,15.90
2023-05-10T18:25:28.776Z,15.90
2023-05-10T18:27:57.627Z,15.80
2023-05-10T18:30:28.358Z,15.80
2023-05-10T18:32:57.805Z,15.70
2023-05-10T18:35:26.473Z,15.70
2023-05-10T18:37:56.808Z,15.60
2023-05-10T18:40:25.878Z,15.50
2023-05-10T18:42:55.783Z,15.50
2023-05-10T18:45:24.692Z,15.40
2023-05-10T18:47:56.826Z,15.40
2023-05-10T18:50:25.907Z,15.30
2023-05-10T18:52:57.849Z,15.30
2023-05-10T18:55:27.012Z,15.20
2023-05-10T18:57:58.000Z,15.10
2023-05-10T19:00:27.196Z,15.00
2023-05-10T19:02:56.020Z,15.00
2023-05-10T19:05:29.929Z,15.00
2023-05-10T19:07:59.597Z,14.90
2023-05-10T19:10:28.964Z,14.90
2023-05-10T19:12:59.561Z,14.80
2023-05-10T19:15:28.120Z,14.70
2023-05-10T19:17:57.556Z,14.70
2023-05-10T19:20:27.799Z,14.60
2023-05-10T19:23:09.219Z,14.50
2023-05-10T19:25:39.567Z,14.40
2023-05-10T19:28:11.681Z,14.40
2023-05-10T19:30:40.538Z,14.30
2023-05-10T19:33:10.411Z,14.20
2023-05-10T19:35:40.720Z,14.20
2023-05-10T19:38:09.540Z,14.10
2023-05-10T19:40:39.684Z,14.10
2023-05-10T19:43:08.133Z,14.10
2023-05-10T19:45:39.472Z,14.00
2023-05-10T19:48:12.335Z,14.00
2023-05-10T19:50:41.443Z,13.90
2023-05-10T19:53:10.046Z,13.90
2023-05-10T19:55:39.589Z,13.90
2023-05-10T19:58:10.552Z,13.80
2023-05-10T20:00:40.494Z,13.80
2023-05-10T20:03:10.072Z,13.80
2023-05-10T20:05:38.664Z,13.70
2023-05-10T20:08:08.363Z,13.70
2023-05-10T20:10:36.654Z,13.70
2023-05-10T20:13:06.062Z,13.60
2023-05-10T20:15:35.028Z,13.50
2023-05-10T20:18:05.788Z,13.50
2023-05-10T20:20:34.630Z,13.50
2023-05-10T20:23:04.876Z,13.50
2023-05-10T20:25:34.108Z,13.40
2023-05-10T20:28:02.902Z,13.40
2023-05-10T20:30:33.166Z,13.40
2023-05-10T20:33:04.201Z,13.40
2023-05-10T20:35:35.339Z,13.40
2023-05-10T20:38:04.561Z,13.30
2023-05-10T20:40:33.811Z,13.30
2023-05-10T20:43:02.695Z,13.30
2023-05-10T20:45:31.652Z,13.30
2023-05-10T20:48:01.319Z,13.30
2023-05-10T20:50:30.337Z,13.30
2023-05-10T20:53:00.658Z,13.30
2023-05-10T20:55:29.484Z,13.20
2023-05-10T20:57:58.475Z,13.20
2023-05-10T21:00:28.024Z,13.20
2023-05-10T21:02:57.129Z,13.10
2023-05-10T21:05:27.433Z,13.10
2023-05-10T21:07:56.873Z,13.10
2023-05-10T21:10:28.343Z,13.10
2023-05-10T21:12:57.341Z,13.10
2023-05-10T21:15:26.306Z,13.10
2023-05-10T21:17:56.038Z,13.00
2023-05-10T21:20:25.352Z,13.00
2023-05-10T21:22:54.272Z,13.00
2023-05-10T21:25:24.457Z,13.00
2023-05-10T21:27:54.497Z,13.00
2023-05-10T21:30:23.482Z,13.00
2023-05-10T21:32:54.209Z,13.00
2023-05-10T21:35:23.032Z,13.00
2023-05-10T21:37:52.796Z,13.10
2023-05-10T21:40:24.417Z,13.00
2023-05-10T21:42:54.396Z,13.00
2023-05-10T21:45:23.552Z,13.00
2023-05-10T21:47:52.388Z,13.00
2023-05-10T21:50:21.204Z,13.00
2023-05-10T21:52:50.376Z,13.00
2023-05-10T21:55:19.829Z,13.00
2023-05-10T21:57:48.763Z,13.00
2023-05-10T22:00:20.606Z,13.00
2023-05-10T22:02:49.792Z,13.00
2023-05-10T22:05:18.657Z,13.00
2023-05-10T22:07:47.381Z,12.90
2023-05-10T22:10:16.681Z,12.90
2023-05-10T22:15:13.971Z,12.90
2023-05-10T22:17:44.167Z,12.90
2023-05-10T22:20:13.458Z,12.80
2023-05-10T22:22:42.602Z,12.80
2023-05-10T22:25:11.380Z,12.80
2023-05-10T22:27:40.168Z,12.80
2023-05-10T22:30:11.602Z,12.80
2023-05-10T22:32:40.397Z,12.80
2023-05-10T22:35:12.070Z,12.80
2023-05-10T22:37:40.991Z,12.80
2023-05-10T22:40:11.437Z,12.70
2023-05-10T22:42:39.870Z,12.70
2023-05-10T22:45:10.815Z,12.70
2023-05-10T22:47:39.708Z,12.70
2023-05-10T22:50:11.121Z,12.60
2023-05-10T22:52:40.848Z,12.60
2023-05-10T22:55:11.532Z,12.60
2023-05-10T22:57:40.641Z,12.60
2023-05-10T23:00:11.719Z,12.50
2023-05-10T23:02:40.492Z,12.50
2023-05-10T23:05:12.284Z,12.40
2023-05-10T23:07:40.902Z,12.40
2023-05-10T23:10:10.838Z,12.40
2023-05-10T23:12:40.715Z,12.40
2023-05-10T23:15:12.101Z,12.40
2023-05-10T23:17:41.447Z,12.40
2023-05-10T23:20:14.782Z,12.30
2023-05-10T23:22:43.537Z,12.30
2023-05-10T23:25:14.511Z,12.30
2023-05-10T23:27:43.361Z,12.30
2023-05-10T23:30:14.774Z,12.30
2023-05-10T23:32:44.770Z,12.20
2023-05-10T23:35:14.891Z,12.20
2023-05-10T23:37:43.516Z,12.20
2023-05-10T23:40:13.539Z,12.20
2023-05-10T23:42:42.735Z,12.20
2023-05-10T23:45:12.623Z,12.20
2023-05-10T23:47:41.436Z,12.20
2023-05-10T23:50:14.562Z,12.20
2023-05-10T23:52:44.689Z,12.20
2023-05-10T23:55:13.580Z,12.20
2023-05-10T23:57:42.428Z,12.10
